Time;durP1;ratioP1;P1;durP2;ratioP2;P2;SDS_P1;SDS_P2;PMS_P1;PMS_P2;Temp;Humidity;BMP_temperature;BMP_pressure;BME280_temperature;BME280_humidity;BME280_pressure;Samples;Min_cycle;Max_cycle;Signal;HPM_P1;HPM_P2
2023/10/25 00:02:10;;;;;;;4.18;2.90;;;12.60;74.00;;;;;;5051101;28;20048;-80
2023/10/25 00:04:36;;;;;;;4.13;2.53;;;12.60;74.50;;;;;;5049490;28;20044;-80
2023/10/25 00:07:02;;;;;;;3.97;2.58;;;12.60;74.00;;;;;;5051559;28;20477;-80
2023/10/25 00:09:28;;;;;;;5.40;2.47;;;12.60;74.00;;;;;;5053895;28;20055;-80
2023/10/25 00:11:54;;;;;;;3.63;2.50;;;12.60;74.00;;;;;;5046473;28;20029;-79
2023/10/25 00:14:20;;;;;;;2.70;1.73;;;12.60;74.00;;;;;;5068467;28;20028;-79
2023/10/25 00:16:46;;;;;;;3.08;1.80;;;12.60;74.00;;;;;;5046587;28;20112;-79
2023/10/25 00:19:12;;;;;;;3.92;1.92;;;12.60;74.00;;;;;;5052462;28;20144;-79
2023/10/25 00:21:38;;;;;;;5.00;1.98;;;12.60;74.00;;;;;;5054312;28;20067;-79
2023/10/25 00:24:05;;;;;;;2.80;1.83;;;12.60;74.00;;;;;;5052069;28;20556;-79
2023/10/25 00:26:30;;;;;;;5.53;2.20;;;12.60;74.10;;;;;;5037274;28;20048;-79
2023/10/25 00:28:58;;;;;;;3.63;2.33;;;12.60;74.10;;;;;;5066500;28;20039;-80
2023/10/25 00:31:25;;;;;;;3.05;1.75;;;12.60;74.10;;;;;;5050930;28;20032;-79
2023/10/25 00:33:51;;;;;;;3.85;2.22;;;12.50;73.90;;;;;;5042257;28;20028;-79
2023/10/25 00:36:17;;;;;;;5.82;2.35;;;12.50;73.90;;;;;;5050576;28;20029;-79
2023/10/25 00:38:43;;;;;;;3.65;1.88;;;12.50;74.00;;;;;;5052753;28;20381;-79
2023/10/25 00:41:12;;;;;;;2.92;1.67;;;12.60;74.10;;;;;;5055235;28;20511;-79
2023/10/25 00:43:38;;;;;;;4.18;1.90;;;12.50;74.00;;;;;;5054493;28;20037;-78
2023/10/25 00:46:11;;;;;;;3.90;1.85;;;12.50;74.00;;;;;;5048695;28;20633;-79
2023/10/25 00:48:39;;;;;;;3.80;2.47;;;12.50;74.00;;;;;;5053527;28;20033;-79
2023/10/25 00:51:08;;;;;;;3.05;1.95;;;12.50;73.90;;;;;;5046570;28;20033;-79
2023/10/25 00:53:37;;;;;;;3.05;1.60;;;12.50;74.00;;;;;;5052573;28;20147;-78
2023/10/25 00:56:05;;;;;;;3.03;1.80;;;12.50;73.90;;;;;;5034752;28;20127;-78
2023/10/25 00:58:32;;;;;;;3.50;2.08;;;12.50;74.00;;;;;;5048392;28;20086;-78
2023/10/25 01:00:59;;;;;;;2.13;1.50;;;12.50;74.00;;;;;;5037419;28;20041;-79
2023/10/25 01:03:25;;;;;;;3.25;1.67;;;12.50;74.00;;;;;;5055492;28;20039;-78
2023/10/25 01:05:51;;;;;;;3.25;1.60;;;12.50;74.00;;;;;;5050701;28;20032;-78
2023/10/25 01:08:19;;;;;;;7.68;2.88;;;12.50;74.00;;;;;;5053912;28;20036;-79
2023/10/25 01:10:53;;;;;;;3.13;1.60;;;12.50;74.00;;;;;;5052974;28;20036;-78
2023/10/25 01:13:20;;;;;;;2.30;1.52;;;12.40;73.90;;;;;;5057062;28;20028;-78
2023/10/25 01:15:46;;;;;;;6.00;1.75;;;12.40;73.90;;;;;;5052303;28;20032;-78
2023/10/25 01:18:14;;;;;;;2.67;1.40;;;12.40;74.00;;;;;;5056160;28;20037;-78
2023/10/25 01:20:40;;;;;;;3.17;1.55;;;12.40;74.00;;;;;;5053932;28;20104;-78
2023/10/25 01:23:06;;;;;;;3.90;1.58;;;12.40;74.00;;;;;;5089263;28;20055;-78
2023/10/25 01:25:32;;;;;;;2.45;1.40;;;12.40;74.10;;;;;;5038910;28;20455;-77
2023/10/25 01:27:58;;;;;;;2.67;1.80;;;12.40;74.10;;;;;;5081935;28;20048;-78
2023/10/25 01:30:25;;;;;;;2.72;1.52;;;12.40;74.10;;;;;;5049353;28;20480;-79
2023/10/25 01:32:52;;;;;;;3.88;2.17;;;12.40;74.20;;;;;;5089237;27;20179;-78
2023/10/25 01:35:18;;;;;;;3.63;1.80;;;12.40;74.20;;;;;;5038101;28;20110;-78
2023/10/25 01:37:44;;;;;;;4.32;2.03;;;12.40;74.20;;;;;;5060539;28;20516;-78
2023/10/25 01:40:12;;;;;;;2.85;1.75;;;12.40;74.20;;;;;;5038122;28;20433;-79
2023/10/25 01:42:38;;;;;;;4.80;1.52;;;12.40;74.20;;;;;;5061585;28;20094;-78
2023/10/25 01:45:06;;;;;;;3.55;1.60;;;12.40;74.20;;;;;;5057150;28;20028;-79
2023/10/25 01:47:31;;;;;;;2.40;1.33;;;12.40;74.20;;;;;;5057542;28;20127;-78
2023/10/25 01:49:58;;;;;;;2.88;1.35;;;12.40;74.20;;;;;;5052299;28;20442;-80
2023/10/25 01:52:23;;;;;;;2.42;1.70;;;12.40;74.30;;;;;;5038762;28;20028;-80
2023/10/25 01:54:50;;;;;;;2.30;1.35;;;12.40;74.30;;;;;;5039961;28;20476;-81
2023/10/25 01:57:17;;;;;;;3.17;1.75;;;12.40;74.30;;;;;;5040409;28;20040;-80
2023/10/25 01:59:45;;;;;;;2.20;1.80;;;12.40;74.40;;;;;;5088941;28;20123;-79
2023/10/25 02:02:12;;;;;;;2.75;2.00;;;12.40;74.40;;;;;;5049142;28;20078;-80
2023/10/25 02:04:38;;;;;;;2.10;1.60;;;12.40;74.40;;;;;;5052095;28;20455;-79
2023/10/25 02:07:10;;;;;;;6.10;1.75;;;12.30;74.30;;;;;;5058550;28;20036;-80
2023/10/25 02:09:37;;;;;;;2.83;2.53;;;12.30;74.20;;;;;;5056211;28;20037;-80
2023/10/25 02:12:07;;;;;;;4.30;2.35;;;12.40;74.50;;;;;;5056495;28;20484;-80
2023/10/25 02:14:36;;;;;;;2.50;1.83;;;12.30;74.30;;;;;;5087103;28;20041;-81
2023/10/25 02:17:02;;;;;;;3.20;2.10;;;12.30;74.40;;;;;;5033537;28;21043;-80
2023/10/25 02:19:28;;;;;;;2.20;2.00;;;12.30;74.40;;;;;;5053960;28;20073;-80
2023/10/25 02:21:58;;;;;;;2.58;2.10;;;12.30;74.40;;;;;;5044145;28;20395;-79
2023/10/25 02:24:26;;;;;;;2.65;1.88;;;12.30;74.40;;;;;;5057881;28;20559;-80
2023/10/25 02:26:52;;;;;;;3.33;2.25;;;12.30;74.40;;;;;;5056703;28;20499;-79
2023/10/25 02:29:18;;;;;;;3.80;2.45;;;12.30;74.40;;;;;;5059654;28;20038;-79
2023/10/25 02:31:44;;;;;;;2.47;2.15;;;12.30;74.40;;;;;;5037098;28;20543;-80
2023/10/25 02:34:10;;;;;;;3.63;2.45;;;12.30;74.40;;;;;;5056827;28;20047;-80
2023/10/25 02:36:36;;;;;;;4.28;2.58;;;12.30;74.40;;;;;;5055192;28;20651;-79
2023/10/25 02:39:02;;;;;;;5.82;2.83;;;12.30;74.40;;;;;;5050088;28;20567;-79
2023/10/25 02:41:28;;;;;;;3.65;2.50;;;12.30;74.50;;;;;;5036770;28;20043;-79
2023/10/25 02:43:56;;;;;;;4.47;2.80;;;12.30;74.50;;;;;;5086722;27;20041;-79
2023/10/25 02:46:23;;;;;;;3.88;2.95;;;12.30;74.50;;;;;;5053440;28;20503;-79
2023/10/25 02:48:52;;;;;;;4.88;3.00;;;12.30;74.50;;;;;;5051852;28;20032;-79
2023/10/25 02:51:18;;;;;;;4.97;3.10;;;12.30;74.50;;;;;;5041554;28;20028;-79
2023/10/25 02:53:44;;;;;;;5.93;3.22;;;12.30;74.50;;;;;;5054798;28;20029;-79
2023/10/25 02:56:10;;;;;;;4.10;2.90;;;12.30;74.50;;;;;;5055074;28;20086;-80
2023/10/25 02:58:36;;;;;;;3.85;2.85;;;12.30;74.50;;;;;;5049488;28;20106;-80
2023/10/25 03:01:03;;;;;;;4.60;3.00;;;12.30;74.50;;;;;;5074140;28;20028;-80
2023/10/25 03:03:34;;;;;;;4.78;3.03;;;12.30;74.50;;;;;;5072607;28;20046;-80
2023/10/25 03:06:00;;;;;;;3.10;2.80;;;12.30;74.60;;;;;;5049503;28;20039;-80
2023/10/25 03:08:27;;;;;;;3.45;2.92;;;12.20;74.40;;;;;;5052064;28;20138;-80
2023/10/25 03:10:55;;;;;;;3.92;3.10;;;12.20;74.40;;;;;;5053766;28;20567;-80
2023/10/25 03:13:21;;;;;;;4.45;3.08;;;12.20;74.40;;;;;;5052587;28;20036;-80
2023/10/25 03:15:46;;;;;;;3.38;2.53;;;12.20;74.40;;;;;;5053033;28;20028;-78
2023/10/25 03:18:13;;;;;;;4.40;3.22;;;12.20;74.40;;;;;;5052002;28;20709;-80
2023/10/25 03:20:39;;;;;;;5.07;2.60;;;12.20;74.50;;;;;;5043820;28;20546;-80
2023/10/25 03:23:05;;;;;;;4.78;3.20;;;12.20;74.40;;;;;;5052663;28;20033;-81
2023/10/25 03:25:31;;;;;;;3.30;3.00;;;12.20;74.40;;;;;;5056162;28;20727;-80
2023/10/25 03:27:57;;;;;;;3.70;3.28;;;12.20;74.40;;;;;;5042642;28;20266;-80
2023/10/25 03:30:23;;;;;;;3.92;2.60;;;12.20;74.40;;;;;;5058501;28;20047;-81
2023/10/25 03:32:50;;;;;;;4.28;2.85;;;12.20;75.00;;;;;;5050358;28;20789;-80
2023/10/25 03:35:16;;;;;;;3.80;2.70;;;12.20;74.40;;;;;;5055404;28;20067;-80
2023/10/25 03:37:42;;;;;;;4.25;3.00;;;12.20;74.40;;;;;;5049471;28;20055;-80
2023/10/25 03:40:11;;;;;;;2.97;2.60;;;12.20;74.40;;;;;;5055536;28;21848;-80
2023/10/25 03:42:38;;;;;;;4.05;2.95;;;12.20;74.40;;;;;;5069887;28;20064;-80
2023/10/25 03:45:06;;;;;;;4.05;3.00;;;12.20;74.40;;;;;;5055516;28;20036;-80
2023/10/25 03:47:37;;;;;;;3.33;2.92;;;12.20;74.50;;;;;;5047327;28;20120;-80
2023/10/25 03:50:07;;;;;;;3.85;2.80;;;12.20;74.50;;;;;;5048667;28;20515;-80
2023/10/25 03:52:33;;;;;;;3.47;2.83;;;12.20;74.60;;;;;;5051856;28;20653;-79
2023/10/25 03:54:59;;;;;;;5.55;3.42;;;12.20;74.60;;;;;;5036235;28;20041;-80
2023/10/25 03:57:26;;;;;;;3.33;2.85;;;12.10;74.40;;;;;;5037899;28;20916;-79
2023/10/25 03:59:53;;;;;;;3.88;2.80;;;12.10;74.50;;;;;;5049910;28;20052;-78
2023/10/25 04:02:19;;;;;;;3.65;3.35;;;12.20;74.70;;;;;;5047910;28;20060;-78
2023/10/25 04:04:45;;;;;;;4.43;3.78;;;12.10;74.50;;;;;;5054951;28;20061;-78
2023/10/25 04:07:14;;;;;;;3.97;3.58;;;12.20;74.70;;;;;;5049232;28;20039;-78
2023/10/25 04:09:40;;;;;;;6.40;3.70;;;12.10;74.50;;;;;;5056078;28;20078;-79
2023/10/25 04:12:12;;;;;;;4.88;3.38;;;12.10;74.50;;;;;;5057131;28;20500;-79
2023/10/25 04:14:43;;;;;;;6.80;3.67;;;12.20;74.70;;;;;;5052496;28;20021;-79
2023/10/25 04:17:10;;;;;;;5.43;3.80;;;12.10;74.50;;;;;;5052705;28;20051;-79
2023/10/25 04:19:37;;;;;;;5.03;3.78;;;12.10;74.50;;;;;;5048119;28;20123;-79
2023/10/25 04:22:03;;;;;;;7.13;4.30;;;12.10;74.50;;;;;;5038182;28;20028;-79
2023/10/25 04:24:29;;;;;;;5.72;3.90;;;12.10;74.50;;;;;;5051277;28;20047;-80
2023/10/25 04:26:55;;;;;;;4.95;3.75;;;12.10;74.60;;;;;;5047404;28;20020;-80
2023/10/25 04:29:21;;;;;;;5.13;3.72;;;12.10;74.60;;;;;;5052667;28;20127;-79
2023/10/25 04:31:47;;;;;;;5.20;4.20;;;12.10;74.60;;;;;;5052934;28;20025;-79
2023/10/25 04:34:12;;;;;;;5.20;4.15;;;12.10;74.60;;;;;;5056222;28;20060;-79
2023/10/25 04:36:39;;;;;;;5.18;4.15;;;12.10;74.60;;;;;;5059970;28;20028;-79
2023/10/25 04:39:07;;;;;;;6.25;4.53;;;12.10;74.60;;;;;;5058873;28;20601;-79
2023/10/25 04:41:32;;;;;;;5.97;4.53;;;12.10;74.60;;;;;;5069067;28;20033;-79
2023/10/25 04:43:58;;;;;;;9.52;6.20;;;12.10;74.60;;;;;;5059804;28;20566;-79
2023/10/25 04:46:24;;;;;;;5.97;4.05;;;12.10;74.60;;;;;;5056549;28;20618;-80
2023/10/25 04:48:50;;;;;;;8.23;5.22;;;12.10;74.60;;;;;;5056478;28;20068;-80
2023/10/25 04:51:16;;;;;;;8.27;4.72;;;12.10;74.70;;;;;;5057570;28;20120;-80
2023/10/25 04:53:45;;;;;;;8.13;6.03;;;12.10;74.70;;;;;;5058648;28;20040;-80
2023/10/25 04:56:11;;;;;;;7.15;5.57;;;12.00;74.50;;;;;;5055709;28;20399;-80
2023/10/25 04:58:37;;;;;;;7.57;5.20;;;12.00;74.50;;;;;;5061448;28;20025;-79
2023/10/25 05:01:12;;;;;;;7.63;5.55;;;12.00;74.50;;;;;;5038511;28;20029;-80
2023/10/25 05:03:37;;;;;;;5.78;5.22;;;12.00;74.60;;;;;;5059158;28;20487;-80
2023/10/25 05:06:06;;;;;;;7.95;6.43;;;12.10;74.70;;;;;;5060543;28;20031;-79
2023/10/25 05:08:33;;;;;;;7.95;6.05;;;12.00;74.60;;;;;;5065046;28;20060;-81
2023/10/25 05:11:04;;;;;;;6.97;6.22;;;12.00;74.50;;;;;;5044310;28;20415;-79
2023/10/25 05:13:30;;;;;;;10.85;7.35;;;12.00;74.60;;;;;;5057020;28;20481;-79
2023/10/25 05:15:56;;;;;;;11.10;6.10;;;12.00;74.60;;;;;;5093957;27;20029;-80
2023/10/25 05:18:23;;;;;;;8.10;6.63;;;12.00;74.60;;;;;;5065242;28;20063;-81
2023/10/25 05:20:58;;;;;;;7.85;7.05;;;12.00;74.60;;;;;;5063588;28;20675;-81
2023/10/25 05:23:31;;;;;;;7.50;6.53;;;12.00;74.70;;;;;;5058072;28;20052;-79
2023/10/25 05:26:02;;;;;;;7.38;6.20;;;12.00;74.70;;;;;;5036773;28;20256;-82
2023/10/25 05:28:30;;;;;;;6.85;6.18;;;12.00;74.70;;;;;;5060981;28;20091;-80
2023/10/25 05:31:01;;;;;;;7.65;6.88;;;12.00;74.70;;;;;;5058766;28;20518;-81
2023/10/25 05:33:29;;;;;;;8.13;6.70;;;12.00;74.80;;;;;;5050171;28;20110;-81
2023/10/25 05:35:55;;;;;;;6.88;6.28;;;12.00;74.80;;;;;;5057148;28;20037;-77
2023/10/25 05:38:21;;;;;;;23.45;9.00;;;12.00;74.70;;;;;;5091577;27;20502;-80
2023/10/25 05:40:51;;;;;;;17.92;8.75;;;12.00;74.70;;;;;;5055221;28;20645;-80
2023/10/25 05:43:27;;;;;;;16.40;8.68;;;12.00;75.00;;;;;;5061410;28;20044;-81
2023/10/25 05:45:54;;;;;;;16.55;8.35;;;12.10;75.20;;;;;;5041024;28;20173;-80
2023/10/25 05:48:20;;;;;;;12.73;8.30;;;12.00;75.00;;;;;;5044525;28;20109;-80
2023/10/25 05:50:50;;;;;;;11.25;8.65;;;12.00;75.00;;;;;;5057923;28;20047;-78
2023/10/25 05:53:18;;;;;;;13.95;9.18;;;12.00;75.00;;;;;;5060698;28;20040;-82
2023/10/25 05:55:45;;;;;;;14.40;8.10;;;12.00;75.10;;;;;;5053256;28;20585;-79
2023/10/25 05:58:12;;;;;;;16.40;8.82;;;12.00;75.30;;;;;;5059668;28;20644;-81
2023/10/25 06:00:39;;;;;;;12.52;8.85;;;12.10;75.60;;;;;;5054571;28;20373;-80
2023/10/25 06:03:06;;;;;;;10.98;8.45;;;12.10;75.60;;;;;;5038826;28;20397;-81
2023/10/25 06:05:36;;;;;;;12.73;9.07;;;12.10;75.60;;;;;;5089223;28;20094;-81
2023/10/25 06:08:03;;;;;;;11.65;9.05;;;12.00;75.40;;;;;;5058726;28;20036;-80
2023/10/25 06:10:29;;;;;;;10.73;9.60;;;12.00;75.40;;;;;;5055799;28;20040;-80
2023/10/25 06:12:55;;;;;;;11.73;10.40;;;12.00;75.40;;;;;;5058100;28;20032;-80
2023/10/25 06:15:21;;;;;;;13.43;10.35;;;12.00;75.40;;;;;;5055230;28;20033;-80
2023/10/25 06:17:47;;;;;;;12.45;11.00;;;12.00;75.60;;;;;;5066259;28;20187;-79
2023/10/25 06:20:19;;;;;;;12.02;10.70;;;12.00;75.50;;;;;;5041356;28;20392;-79
2023/10/25 06:22:46;;;;;;;12.35;10.85;;;11.90;75.30;;;;;;5050443;28;20095;-79
2023/10/25 06:25:12;;;;;;;12.55;11.27;;;11.90;75.30;;;;;;5055118;28;20029;-80
2023/10/25 06:27:38;;;;;;;15.10;12.23;;;11.90;75.30;;;;;;5057157;28;20488;-82
2023/10/25 06:30:04;;;;;;;15.57;12.02;;;11.90;75.30;;;;;;5054128;28;20060;-82
2023/10/25 06:32:30;;;;;;;16.48;14.35;;;11.90;75.30;;;;;;5052076;28;20025;-82
2023/10/25 06:34:56;;;;;;;18.95;14.45;;;11.90;75.30;;;;;;5053165;28;20526;-82
2023/10/25 06:37:27;;;;;;;16.38;14.63;;;11.90;75.30;;;;;;5050495;28;20421;-83
2023/10/25 06:39:53;;;;;;;17.23;15.43;;;11.90;75.30;;;;;;5051966;28;20469;-80
2023/10/25 06:42:19;;;;;;;21.67;16.58;;;11.80;75.10;;;;;;5050587;28;20043;-81
2023/10/25 06:44:45;;;;;;;21.17;16.95;;;11.80;75.10;;;;;;5060619;28;20450;-81
2023/10/25 06:47:12;;;;;;;17.88;15.10;;;11.80;75.10;;;;;;5083992;28;20247;-80
2023/10/25 06:49:38;;;;;;;19.52;17.42;;;11.80;75.10;;;;;;5058501;28;20524;-80
2023/10/25 06:52:04;;;;;;;23.05;18.95;;;11.80;75.10;;;;;;5060218;28;20310;-79
2023/10/25 06:54:30;;;;;;;23.58;17.75;;;11.90;75.30;;;;;;5061201;28;20081;-81
2023/10/25 06:56:57;;;;;;;22.38;19.60;;;11.80;75.00;;;;;;5058814;28;20035;-79
2023/10/25 06:59:23;;;;;;;27.35;19.35;;;11.90;75.10;;;;;;5041285;28;20488;-79
2023/10/25 07:01:56;;;;;;;22.30;18.45;;;11.90;75.10;;;;;;5054425;28;20423;-80
2023/10/25 07:04:25;;;;;;;29.13;20.08;;;11.90;75.10;;;;;;5058617;28;20177;-80
2023/10/25 07:06:52;;;;;;;26.85;19.67;;;11.90;75.00;;;;;;5060820;28;20584;-80
2023/10/25 07:09:18;;;;;;;27.33;20.67;;;11.90;75.00;;;;;;5057657;28;20028;-80
2023/10/25 07:11:44;;;;;;;28.60;21.63;;;11.90;74.90;;;;;;5059392;28;20037;-80
2023/10/25 07:14:10;;;;;;;29.73;22.75;;;11.80;74.70;;;;;;5074384;28;20036;-80
2023/10/25 07:16:37;;;;;;;29.10;22.65;;;11.90;74.80;;;;;;5057643;28;20055;-81
2023/10/25 07:19:03;;;;;;;28.92;22.80;;;11.90;74.80;;;;;;5057567;28;20048;-81
2023/10/25 07:21:29;;;;;;;30.05;23.25;;;11.90;74.80;;;;;;5055241;28;20035;-80
2023/10/25 07:23:55;;;;;;;30.02;22.52;;;11.90;74.80;;;;;;5058274;28;20578;-81
2023/10/25 07:26:21;;;;;;;30.25;23.77;;;11.90;74.80;;;;;;5086673;28;20467;-80
2023/10/25 07:28:47;;;;;;;26.00;20.90;;;11.90;74.80;;;;;;5057822;28;20035;-80
2023/10/25 07:31:13;;;;;;;25.98;22.52;;;11.80;74.60;;;;;;5050618;28;20158;-82
2023/10/25 07:33:40;;;;;;;27.80;22.80;;;11.90;74.70;;;;;;5067181;28;20032;-81
2023/10/25 07:36:07;;;;;;;28.80;23.30;;;11.90;74.70;;;;;;5040409;28;20364;-82
2023/10/25 07:38:33;;;;;;;29.33;23.33;;;11.90;74.70;;;;;;5074529;28;20127;-82
2023/10/25 07:40:58;;;;;;;29.05;22.50;;;11.90;74.70;;;;;;5043107;28;20083;-83
2023/10/25 07:43:25;;;;;;;30.83;22.85;;;11.90;74.70;;;;;;5039978;28;20115;-82
2023/10/25 07:45:51;;;;;;;32.47;23.60;;;11.90;74.60;;;;;;5041853;28;20041;-82
2023/10/25 07:48:17;;;;;;;31.63;24.48;;;11.90;74.60;;;;;;5056197;28;20036;-82
2023/10/25 07:50:43;;;;;;;33.50;24.90;;;11.90;74.60;;;;;;5038334;28;20427;-82
2023/10/25 07:53:09;;;;;;;29.00;23.63;;;12.00;74.70;;;;;;5057763;28;20040;-82
2023/10/25 07:55:40;;;;;;;29.58;22.45;;;12.00;74.70;;;;;;5055885;28;20072;-82
2023/10/25 07:58:07;;;;;;;31.83;25.42;;;12.00;74.60;;;;;;5061004;28;20237;-81
2023/10/25 08:00:34;;;;;;;30.48;24.05;;;12.00;74.60;;;;;;5047494;28;20567;-80
2023/10/25 08:03:00;;;;;;;30.65;23.15;;;12.10;74.60;;;;;;5053953;28;20041;-80
2023/10/25 08:05:26;;;;;;;31.80;23.88;;;12.10;74.50;;;;;;5062430;28;20032;-81
2023/10/25 08:07:52;;;;;;;29.15;24.25;;;12.20;74.70;;;;;;5058725;28;20126;-80
2023/10/25 08:10:18;;;;;;;29.52;22.95;;;12.20;75.00;;;;;;5055954;28;20029;-81
2023/10/25 08:12:44;;;;;;;30.63;22.30;;;12.20;74.50;;;;;;5037671;28;20522;-80
2023/10/25 08:15:10;;;;;;;28.10;22.35;;;12.20;74.30;;;;;;5057707;28;20123;-80
2023/10/25 08:17:36;;;;;;;29.27;23.05;;;12.30;74.40;;;;;;5058548;28;20034;-80
2023/10/25 08:20:03;;;;;;;25.95;22.00;;;12.30;74.40;;;;;;5053708;28;20024;-81
2023/10/25 08:22:29;;;;;;;27.33;21.60;;;12.30;74.30;;;;;;5060121;28;20052;-80
2023/10/25 08:24:54;;;;;;;26.45;20.85;;;12.30;74.20;;;;;;5059500;28;20455;-80
2023/10/25 08:27:20;;;;;;;29.85;22.02;;;12.30;74.10;;;;;;5060628;28;20137;-80
2023/10/25 08:29:46;;;;;;;28.13;22.30;;;12.30;74.00;;;;;;5057018;28;20078;-79
2023/10/25 08:32:13;;;;;;;27.33;21.38;;;12.40;74.10;;;;;;5049698;28;20036;-80
2023/10/25 08:34:46;;;;;;;26.00;21.38;;;12.40;74.00;;;;;;5040890;28;20041;-81
2023/10/25 08:37:12;;;;;;;26.58;19.95;;;12.40;74.00;;;;;;5055198;28;20063;-80
2023/10/25 08:39:38;;;;;;;26.27;20.80;;;12.50;74.10;;;;;;5058258;28;20131;-80
2023/10/25 08:42:08;;;;;;;26.65;21.77;;;12.50;74.00;;;;;;5051766;28;20032;-80
2023/10/25 08:44:39;;;;;;;23.80;19.75;;;12.50;74.00;;;;;;5065002;28;20029;-82
2023/10/25 08:47:05;;;;;;;22.88;19.02;;;12.50;73.90;;;;;;5058901;28;20025;-81
2023/10/25 08:49:31;;;;;;;24.50;20.48;;;12.60;73.90;;;;;;5042318;28;20051;-81
2023/10/25 08:51:59;;;;;;;22.13;18.73;;;12.70;74.00;;;;;;5055780;28;20180;-81
2023/10/25 08:54:28;;;;;;;24.95;20.08;;;12.60;73.70;;;;;;5059859;28;20193;-80
2023/10/25 08:56:55;;;;;;;25.10;19.55;;;12.70;73.70;;;;;;5073374;28;20052;-80
2023/10/25 08:59:21;;;;;;;23.85;19.45;;;12.80;73.80;;;;;;5062517;28;20036;-79
2023/10/25 09:01:48;;;;;;;23.85;19.40;;;12.80;73.70;;;;;;5045280;28;20029;-79
2023/10/25 09:04:14;;;;;;;21.58;18.52;;;12.80;73.50;;;;;;5067309;28;20040;-79
2023/10/25 09:06:40;;;;;;;23.90;20.08;;;12.90;73.60;;;;;;5039875;28;20017;-82
2023/10/25 09:09:08;;;;;;;21.83;19.23;;;12.90;73.50;;;;;;5059621;28;20319;-81
2023/10/25 09:11:43;;;;;;;20.60;18.10;;;12.90;73.40;;;;;;5056803;28;20067;-81
2023/10/25 09:14:10;;;;;;;23.23;18.27;;;12.90;73.30;;;;;;5076704;28;20300;-82
2023/10/25 09:16:44;;;;;;;20.08;18.00;;;13.00;73.40;;;;;;5062360;28;20594;-81
2023/10/25 09:19:17;;;;;;;20.55;18.33;;;13.00;73.30;;;;;;5055067;28;20128;-80
2023/10/25 09:21:43;;;;;;;22.85;18.92;;;13.00;73.20;;;;;;5059651;28;20020;-80
2023/10/25 09:24:09;;;;;;;21.67;19.13;;;13.00;73.20;;;;;;5066132;28;20034;-81
2023/10/25 09:26:41;;;;;;;22.38;17.75;;;13.10;73.30;;;;;;5055689;28;20519;-81
2023/10/25 09:29:09;;;;;;;20.70;17.15;;;13.10;73.20;;;;;;5099213;27;20063;-83
2023/10/25 09:31:37;;;;;;;20.48;17.00;;;13.20;73.30;;;;;;5054369;28;20121;-83
2023/10/25 09:34:08;;;;;;;20.73;18.30;;;13.20;73.20;;;;;;5057755;28;20574;-82
2023/10/25 09:36:36;;;;;;;20.45;17.50;;;13.30;73.10;;;;;;5057339;28;20025;-81
2023/10/25 09:39:02;;;;;;;19.30;17.17;;;13.30;72.90;;;;;;5042424;28;20032;-82
2023/10/25 09:41:33;;;;;;;19.38;17.38;;;13.50;73.10;;;;;;5054155;28;20042;-83
2023/10/25 09:44:11;;;;;;;21.13;16.27;;;13.50;72.90;;;;;;5062190;28;20495;-82
2023/10/25 09:46:39;;;;;;;17.25;15.38;;;13.60;72.90;;;;;;5059714;28;20032;-81
2023/10/25 09:49:10;;;;;;;18.00;15.38;;;13.60;72.80;;;;;;5060907;28;20028;-81
2023/10/25 09:51:48;;;;;;;18.90;15.68;;;13.60;72.70;;;;;;5040976;28;20025;-82
2023/10/25 09:54:22;;;;;;;18.83;15.07;;;13.60;72.60;;;;;;5059002;28;20033;-81
2023/10/25 09:56:54;;;;;;;16.52;14.80;;;13.60;72.60;;;;;;5056564;28;20025;-81
2023/10/25 09:59:21;;;;;;;17.90;16.00;;;13.60;72.60;;;;;;5040603;28;20425;-81
2023/10/25 10:01:47;;;;;;;19.05;15.77;;;13.60;72.50;;;;;;5059783;28;20040;-82
2023/10/25 10:04:55;;;;;;;16.67;14.95;;;13.70;72.60;;;;;;5059109;28;20454;-82
2023/10/25 10:07:38;;;;;;;18.35;14.95;;;13.70;72.50;;;;;;5054788;28;20087;-82
2023/10/25 10:10:55;;;;;;;17.63;15.07;;;13.70;72.40;;;;;;5059196;28;20025;-84
2023/10/25 10:13:22;;;;;;;15.10;13.55;;;13.70;72.30;;;;;;5024193;28;20597;-84
2023/10/25 10:15:58;;;;;;;18.90;14.98;;;13.70;72.30;;;;;;5059869;28;20407;-84
2023/10/25 10:18:31;;;;;;;16.42;13.70;;;13.70;72.30;;;;;;5061630;28;20045;-85
2023/10/25 10:21:02;;;;;;;17.13;13.03;;;13.70;72.20;;;;;;5068190;28;20103;-82
2023/10/25 10:23:51;;;;;;;14.63;12.83;;;13.70;72.20;;;;;;5060701;28;20374;-84
2023/10/25 10:26:43;;;;;;;16.13;13.05;;;13.70;72.20;;;;;;5050416;28;20086;-83
2023/10/25 10:29:48;;;;;;;14.30;12.30;;;13.70;72.10;;;;;;5071001;28;20059;-84
2023/10/25 10:32:16;;;;;;;14.05;12.45;;;13.80;72.30;;;;;;4962820;28;20490;-84
2023/10/25 10:34:46;;;;;;;14.15;12.02;;;13.80;72.20;;;;;;5033948;28;20119;-84
2023/10/25 10:37:16;;;;;;;13.73;11.13;;;13.90;72.40;;;;;;5055429;28;20405;-83
2023/10/25 10:39:57;;;;;;;11.65;10.45;;;13.90;72.20;;;;;;5059271;28;20044;-84
2023/10/25 10:42:32;;;;;;;13.40;10.30;;;14.10;72.30;;;;;;5058243;28;20047;-83
2023/10/25 10:45:01;;;;;;;12.15;10.25;;;14.10;72.10;;;;;;5063217;28;20158;-83
2023/10/25 10:47:41;;;;;;;10.35;9.35;;;14.20;72.00;;;;;;5049987;28;20757;-83
2023/10/25 10:50:18;;;;;;;12.40;9.88;;;14.30;71.90;;;;;;5054214;28;20778;-83
2023/10/25 10:52:46;;;;;;;10.77;9.10;;;14.30;71.70;;;;;;5042407;28;20134;-83
2023/10/25 10:55:14;;;;;;;10.65;9.40;;;14.30;71.60;;;;;;5053442;28;20106;-82
2023/10/25 10:57:42;;;;;;;9.13;8.23;;;14.40;71.60;;;;;;5077167;28;20024;-82
2023/10/25 11:00:09;;;;;;;10.52;8.55;;;14.40;71.40;;;;;;5059137;28;20036;-82
2023/10/25 11:02:40;;;;;;;9.07;8.13;;;14.40;71.30;;;;;;5065676;28;20032;-83
2023/10/25 11:05:07;;;;;;;8.82;7.93;;;14.50;71.30;;;;;;5058391;28;20457;-83
2023/10/25 11:07:34;;;;;;;8.75;7.85;;;14.40;71.10;;;;;;5056830;28;20503;-82
2023/10/25 11:10:00;;;;;;;9.35;8.00;;;14.40;71.10;;;;;;5056901;28;20064;-82
2023/10/25 11:12:26;;;;;;;9.45;7.85;;;14.40;71.10;;;;;;5053745;28;20074;-83
2023/10/25 11:14:53;;;;;;;8.98;7.95;;;14.30;70.90;;;;;;5041697;28;20383;-83
2023/10/25 11:17:20;;;;;;;8.75;6.72;;;14.30;70.90;;;;;;5054730;28;20043;-82
2023/10/25 11:19:47;;;;;;;10.10;8.00;;;14.30;70.90;;;;;;5059283;28;20039;-82
2023/10/25 11:22:14;;;;;;;8.68;7.65;;;14.30;71.00;;;;;;5039370;28;20035;-83
2023/10/25 11:24:40;;;;;;;8.65;7.75;;;14.20;70.80;;;;;;5057843;28;20032;-84
2023/10/25 11:27:07;;;;;;;10.10;7.63;;;14.30;71.00;;;;;;5036251;28;20032;-82
2023/10/25 11:29:34;;;;;;;7.90;7.20;;;14.20;70.80;;;;;;5058414;28;20032;-84
2023/10/25 11:32:06;;;;;;;9.55;7.22;;;14.30;70.90;;;;;;5054149;28;20802;-82
2023/10/25 11:34:33;;;;;;;9.00;7.05;;;14.30;70.90;;;;;;5053117;28;20336;-83
2023/10/25 11:37:03;;;;;;;8.20;6.72;;;14.30;70.70;;;;;;5055056;28;20032;-81
2023/10/25 11:39:34;;;;;;;8.48;6.63;;;14.30;70.60;;;;;;5054004;28;20044;-82
2023/10/25 11:42:01;;;;;;;7.85;6.47;;;14.30;70.50;;;;;;5048936;28;20046;-81
2023/10/25 11:44:27;;;;;;;10.60;7.15;;;14.30;70.40;;;;;;5062831;28;20161;-81
2023/10/25 11:46:58;;;;;;;9.73;7.72;;;14.30;70.30;;;;;;5055320;28;20036;-81
2023/10/25 11:49:25;;;;;;;8.27;7.32;;;14.30;70.30;;;;;;5055641;28;20036;-81
2023/10/25 11:51:54;;;;;;;8.63;6.97;;;14.20;70.10;;;;;;5054563;28;20462;-82
2023/10/25 11:54:20;;;;;;;7.65;6.38;;;14.20;70.10;;;;;;5058370;28;20424;-82
2023/10/25 11:56:49;;;;;;;7.15;6.25;;;14.20;70.20;;;;;;5056008;28;20025;-83
2023/10/25 11:59:17;;;;;;;7.95;6.43;;;14.20;70.20;;;;;;5063135;28;20248;-83
2023/10/25 12:01:43;;;;;;;8.23;7.28;;;14.30;70.30;;;;;;5038894;28;20132;-89
2023/10/25 12:04:09;;;;;;;7.90;6.45;;;14.30;70.30;;;;;;5063961;28;20437;-80
2023/10/25 12:06:37;;;;;;;8.13;6.45;;;14.30;70.20;;;;;;5060515;28;20259;-84
2023/10/25 12:09:04;;;;;;;7.40;6.50;;;14.40;70.30;;;;;;5057008;28;20327;-83
2023/10/25 12:11:30;;;;;;;7.68;6.53;;;14.40;70.20;;;;;;5056847;28;20024;-84
2023/10/25 12:13:57;;;;;;;9.82;7.82;;;14.50;70.20;;;;;;5045458;28;20036;-82
2023/10/25 12:16:25;;;;;;;8.07;6.85;;;14.50;70.00;;;;;;5051715;28;20530;-81
2023/10/25 12:18:52;;;;;;;11.18;7.15;;;14.50;70.50;;;;;;5057311;28;20115;-80
2023/10/25 12:21:18;;;;;;;9.07;6.93;;;14.50;69.90;;;;;;5055280;28;20502;-82
2023/10/25 12:23:45;;;;;;;6.97;5.97;;;14.60;69.90;;;;;;5056635;28;20029;-82
2023/10/25 12:26:12;;;;;;;7.72;6.82;;;14.70;69.90;;;;;;5064800;28;20085;-82
2023/10/25 12:28:38;;;;;;;8.73;6.60;;;14.80;69.90;;;;;;5039985;28;20024;-82
2023/10/25 12:31:04;;;;;;;7.85;6.70;;;14.80;69.80;;;;;;5054124;28;20523;-81
2023/10/25 12:33:30;;;;;;;8.10;6.82;;;14.80;69.70;;;;;;5054507;28;20202;-82
2023/10/25 12:35:56;;;;;;;7.43;6.43;;;14.80;69.70;;;;;;5058008;28;20553;-81
2023/10/25 12:38:22;;;;;;;7.75;6.75;;;14.90;69.90;;;;;;5039706;28;20032;-83
2023/10/25 12:40:48;;;;;;;7.78;6.53;;;14.90;69.80;;;;;;5047956;28;20040;-81
2023/10/25 12:43:14;;;;;;;8.82;7.32;;;14.90;69.60;;;;;;5055004;28;20105;-82